Terminal Aerodrome Forecast
Issued by NWS

Home | Current Version | Previous Version | Text Only | Print | Product List | Glossary On
Versions: 1 2 3 4 5 6 7 8 9 10 11 12
000
FTUS44 KTSA 280500
TAFBVO
TAF
KBVO 280520Z 2806/2906 18006KT P6SM BKN250
     FM281600 19015G25KT P6SM SCT250
     FM290000 18010KT P6SM SCT250=

USA.gov is the U.S. government's official web portal to all federal, state and local government web resources and services.